Date,TemperatureHighF,TemperatureAvgF,TemperatureLowF,DewpointHighF,DewpointAvgF,DewpointLowF,HumidityHigh,HumidityAvg,HumidityLow,PressureMaxIn,PressureMinIn,WindSpeedMaxMPH,WindSpeedAvgMPH,GustSpeedMaxMPH,PrecipitationSumIn
2013-1-1,37,31,24,35,29,22,95,94,91,30.23,30.01,10,3,10,0.00
2013-1-2,39,26,19,27,21,17,93,81,49,30.24,30.15,8,2,8,0.01
2013-1-3,49,31,16,33,23,13,93,75,44,30.41,30.23,7,1,7,0.01
2013-1-4,52,34,17,28,23,14,92,67,34,30.43,30.30,11,2,11,0.00
2013-1-5,44,37,28,34,29,22,93,73,63,30.30,30.15,14,4,16,0.00
2013-1-6,52,33,21,31,23,15,92,69,36,30.35,30.21,10,2,11,0.00
2013-1-7,54,37,21,29,24,16,84,62,37,30.31,30.09,14,4,15,0.00
2013-1-8,59,43,27,45,34,21,95,73,47,30.19,30.03,14,4,14,0.44
2013-1-9,54,50,46,46,43,37,96,79,57,30.32,30.18,24,6,24,0.04
2013-1-10,59,50,46,54,47,39,93,88,64,30.19,29.80,22,8,22,0.17
2013-1-11,67,56,45,47,45,43,92,69,45,29.87,29.72,25,10,25,0.00
2013-1-12,58,43,27,50,35,25,92,77,43,29.96,29.79,18,6,18,0.73
2013-1-13,32,22,16,25,18,12,91,84,68,30.32,29.95,12,4,12,0.00
2013-1-14,67,25,15,53,18,11,89,75,36,30.34,30.28,6,2,8,0.00
2013-1-15,37,25,15,23,17,12,88,74,40,30.28,30.12,8,2,8,0.01
2013-1-16,47,28,13,24,18,10,91,68,36,30.17,30.08,10,2,10,0.02
2013-1-17,52,36,23,33,25,16,85,65,42,30.45,30.17,13,2,13,0.00
2013-1-18,59,41,23,33,27,18,90,61,33,30.47,30.17,17,6,17,0.00
2013-1-19,66,49,34,38,33,28,80,55,36,30.18,30.06,17,6,17,0.00
2013-1-20,66,47,29,37,29,19,86,52,32,30.25,30.10,16,5,16,0.00
2013-1-21,43,30,21,19,15,13,75,57,34,30.37,30.24,12,4,12,0.00
2013-1-22,51,32,20,28,21,14,80,63,40,30.29,30.17,13,3,13,0.00
2013-1-23,66,44,26,45,34,20,87,68,44,30.25,30.12,12,2,12,0.00
2013-1-24,44,38,36,34,24,19,92,57,45,30.29,30.08,15,7,16,0.00
2013-1-25,54,38,31,35,31,28,94,76,46,30.23,30.07,9,2,9,0.00
2013-1-26,64,46,33,29,26,20,81,48,22,30.24,30.10,16,6,16,0.00
2013-1-27,60,54,46,56,48,28,89,81,48,30.11,29.91,24,11,24,0.00
2013-1-28,74,66,60,62,60,56,87,80,65,29.97,29.81,24,11,24,0.00
2013-1-29,69,59,44,62,55,43,96,87,77,29.81,29.48,26,10,26,1.66
2013-1-30,45,32,21,43,28,18,96,84,73,30.04,29.52,22,7,22,0.01
2013-1-31,50,29,18,32,21,8,93,72,47,30.40,29.98,14,4,16,0.02
2013-2-1,48,27,11,20,12,5,83,57,31,30.41,30.13,16,4,16,0.00
2013-2-2,56,40,24,33,26,17,79,60,40,30.24,30.13,11,3,12,0.00
2013-2-3,58,45,37,31,27,22,72,50,28,30.27,29.95,10,4,12,0.00
2013-2-4,65,51,34,47,36,26,81,60,40,29.95,29.82,15,6,17,0.23
2013-2-5,68,46,29,50,34,25,92,67,29,30.05,29.90,12,2,12,0.00
2013-2-6,66,51,36,43,37,29,82,61,41,30.08,29.94,19,7,20,0.00
2013-2-7,56,51,43,52,47,39,93,87,75,30.08,29.86,13,6,14,0.08
2013-2-8,57,42,33,39,32,28,87,70,39,30.27,30.07,12,4,13,0.00
2013-2-9,48,40,33,44,34,29,92,78,51,30.18,29.79,20,9,20,0.18
2013-2-10,63,53,38,52,38,26,94,62,31,30.04,29.63,23,10,23,0.13
2013-2-11,58,39,26,30,25,20,86,61,31,30.17,30.03,12,2,12,0.00
2013-2-12,46,38,30,35,29,23,93,72,50,30.12,29.90,9,3,10,0.10
2013-2-13,54,40,32,39,32,30,95,77,45,30.00,29.92,13,4,13,0.18
2013-2-14,62,46,32,38,32,26,79,59,39,30.15,29.94,10,3,13,0.00
2013-2-15,44,35,21,29,20,11,79,58,32,30.32,30.15,12,4,14,0.00
2013-2-16,42,32,21,27,20,14,85,62,43,30.31,30.09,12,4,12,0.00
2013-2-17,66,48,29,34,26,15,64,44,30,30.09,29.80,17,8,20,0.00
2013-2-18,58,50,34,51,39,24,89,66,42,30.11,29.60,24,12,24,0.32
2013-2-19,48,34,21,24,21,15,86,61,37,30.30,30.11,14,3,14,0.00
2013-2-20,36,31,26,31,22,14,88,70,51,30.27,30.02,16,5,18,0.08
2013-2-21,35,33,29,34,30,25,95,90,81,30.03,29.66,18,6,18,0.02
2013-2-22,41,29,21,31,22,17,89,74,50,30.10,29.84,16,5,17,0.01
2013-2-23,52,32,18,28,21,15,91,68,36,30.08,29.93,9,1,9,0.00
2013-2-24,61,43,25,38,30,20,85,63,38,29.97,29.81,16,6,17,0.00
2013-2-25,42,39,35,36,33,30,92,81,64,29.86,29.43,20,7,23,0.68
2013-2-26,35,33,32,33,31,30,94,91,87,29.87,29.39,13,5,13,0.07
2013-2-27,41,34,32,32,29,26,91,82,67,30.06,29.85,14,6,15,0.16
2013-2-28,36,32,29,28,27,24,87,80,70,30.17,30.05,13,5,13,0.00
2013-3-1,33,30,26,26,22,20,83,75,63,30.24,30.13,14,5,15,0.00
2013-3-2,43,30,22,24,20,16,89,70,39,30.30,30.17,13,3,15,0.00
2013-3-3,60,43,22,33,27,17,83,55,34,30.17,29.74,17,8,17,0.00
2013-3-4,69,55,44,46,40,31,82,57,42,29.86,29.60,19,8,22,0.00
2013-3-5,46,38,31,34,26,19,91,62,40,30.29,29.86,21,8,21,0.11
2013-3-6,56,37,23,28,22,17,78,58,30,30.37,30.20,11,3,11,0.00
2013-3-7,66,49,34,32,28,25,71,47,24,30.24,30.11,16,6,16,0.00
2013-3-8,64,53,42,41,36,31,68,54,42,30.21,30.02,19,9,19,0.00
2013-3-9,69,58,52,56,47,36,95,67,48,30.02,29.66,23,11,23,1.27
2013-3-10,56,44,29,53,41,26,95,91,80,29.94,29.64,16,7,16,0.92
2013-3-11,48,34,27,32,25,20,88,71,38,30.02,29.90,15,6,15,0.00
2013-3-12,58,43,26,33,27,20,88,57,30,30.30,30.01,14,4,14,0.00
2013-3-13,58,40,25,27,21,17,76,49,24,30.44,30.30,10,2,11,0.00
2013-3-14,75,55,36,43,32,19,58,44,30,30.32,30.09,19,6,19,0.00
2013-3-15,82,66,52,50,45,42,72,50,27,30.10,29.79,22,7,22,0.00
2013-3-16,78,63,48,54,46,39,70,54,39,29.85,29.76,19,6,19,0.00
2013-3-17,48,43,40,44,40,37,95,89,71,29.86,29.66,18,6,18,0.20
2013-3-18,58,45,33,44,37,27,95,76,36,30.04,29.67,14,4,14,0.00
2013-3-19,62,45,31,29,25,19,84,51,22,30.24,30.00,16,4,16,0.00
2013-3-20,50,38,27,30,22,15,87,57,27,30.33,30.08,16,3,16,0.00
2013-3-21,42,35,32,33,24,12,93,68,30,30.08,29.78,18,8,21,0.26
2013-3-22,42,37,33,38,34,30,93,90,84,29.92,29.80,14,4,14,0.20
2013-3-23,41,38,36,39,36,34,95,93,90,29.90,29.70,12,4,14,0.05
2013-3-24,40,32,27,38,29,21,95,87,75,30.10,29.65,22,7,22,0.06
2013-3-25,35,29,23,25,21,18,84,74,58,30.31,30.08,16,6,19,0.02
2013-3-26,50,33,22,26,22,18,91,67,36,30.40,30.27,12,3,12,0.00
2013-3-27,60,44,26,35,26,20,79,52,25,30.29,30.10,17,6,17,0.00
2013-3-28,73,57,44,50,41,29,78,55,44,30.20,30.10,15,6,16,0.00
2013-3-29,70,58,50,57,52,44,94,79,61,30.19,30.08,12,4,12,0.26
2013-3-30,73,59,52,58,54,50,95,83,59,30.10,29.88,15,5,19,0.56
2013-3-31,72,57,43,53,46,36,95,70,32,29.98,29.85,14,2,14,0.08
2013-4-1,64,48,36,44,38,31,91,71,44,30.17,29.97,17,5,17,0.00
2013-4-2,42,38,35,36,34,30,92,87,62,30.24,30.15,14,6,14,0.53
2013-4-3,50,42,36,37,29,24,84,61,39,30.23,30.13,19,6,22,0.05
2013-4-4,62,48,36,39,34,29,85,61,35,30.14,30.04,12,2,14,0.00
2013-4-5,73,53,29,43,35,26,90,56,26,30.18,29.97,12,3,12,0.00
2013-4-6,77,64,54,49,44,36,63,50,35,29.97,29.79,29,10,29,0.00
2013-4-7,78,65,53,59,54,48,89,69,49,29.92,29.75,24,8,24,0.00
2013-4-8,73,66,59,61,58,54,92,76,66,29.81,29.71,21,9,21,0.35
2013-4-9,80,71,64,64,60,56,77,68,56,29.78,29.70,22,11,22,0.00
2013-4-10,73,45,36,64,42,34,95,90,68,29.89,29.72,19,6,19,2.60
2013-4-11,54,40,33,36,32,28,94,75,44,29.89,29.74,16,5,16,0.02
2013-4-12,60,44,31,38,32,28,92,65,41,30.02,29.79,15,3,15,0.00
2013-4-13,72,54,38,50,41,32,86,64,38,30.04,29.78,19,5,19,0.00
2013-4-14,80,68,58,53,49,45,66,52,37,29.79,29.55,25,11,27,0.00
2013-4-15,79,66,53,65,56,44,84,70,62,29.85,29.67,18,6,20,0.00
2013-4-16,75,59,50,62,54,47,93,82,60,29.98,29.84,11,4,11,0.00
2013-4-17,84,72,58,69,63,54,94,76,56,29.94,29.63,26,10,26,0.02
2013-4-18,72,49,37,66,44,28,96,85,68,30.00,29.55,22,8,22,3.89
2013-4-19,58,44,33,33,29,25,78,58,34,30.10,29.97,16,6,18,0.00
2013-4-20,69,51,33,42,35,28,86,58,30,30.18,30.07,12,3,12,0.00
2013-4-21,71,57,47,44,40,36,78,55,32,30.24,30.10,20,7,20,0.00
2013-4-22,73,60,45,48,42,37,77,55,37,30.17,29.89,21,6,22,0.00
2013-4-23,60,48,36,52,43,33,93,84,63,30.11,29.81,12,5,14,0.17
2013-4-24,57,43,33,35,31,27,93,67,34,30.29,30.10,12,4,12,0.01
2013-4-25,75,51,28,47,33,24,88,56,24,30.35,30.18,10,2,10,0.00
2013-4-26,57,52,48,49,45,36,93,81,50,30.31,30.08,24,9,24,0.68
2013-4-27,57,52,50,55,51,48,96,94,92,30.09,29.92,25,4,25,0.32
2013-4-28,82,61,50,55,51,48,95,73,37,30.03,29.86,9,2,9,0.00
2013-4-29,86,71,54,63,55,50,88,61,34,29.90,29.77,19,7,19,0.00
2013-4-30,83,71,57,58,52,45,84,55,28,29.87,29.80,24,8,24,0.00
2013-5-1,85,70,56,67,57,50,87,65,41,30.07,29.86,15,6,15,0.00
2013-5-2,62,47,33,57,43,31,93,86,80,30.26,30.04,13,6,14,0.43
2013-5-3,49,39,32,37,32,29,95,79,47,30.24,29.93,18,6,18,0.42
2013-5-4,48,40,35,39,35,33,93,86,70,30.00,29.83,12,3,14,0.34
2013-5-5,60,48,33,48,42,31,94,80,57,30.08,29.98,13,4,13,0.00
2013-5-6,68,54,45,54,48,43,93,82,60,30.10,30.00,9,3,10,0.00
2013-5-7,81,62,41,58,49,39,95,67,34,30.09,29.98,7,1,7,0.00
2013-5-8,81,66,53,62,55,47,84,68,42,30.07,29.90,17,4,17,0.02
2013-5-9,79,65,58,63,59,55,96,83,53,29.98,29.87,21,4,21,2.63
2013-5-10,71,62,51,62,57,48,97,84,62,30.06,29.89,12,3,12,1.39
2013-5-11,74,60,44,59,47,35,96,66,32,30.20,30.04,17,3,17,0.00
2013-5-12,71,54,36,49,38,30,88,59,28,30.27,30.13,10,2,10,0.00
2013-5-13,84,66,46,58,50,41,85,59,38,30.15,30.04,20,4,20,0.00
2013-5-14,89,75,62,59,54,47,66,50,25,30.07,29.96,17,6,17,0.00
2013-5-15,75,68,62,65,60,50,96,75,55,30.00,29.86,16,6,16,0.56
2013-5-16,71,64,61,65,61,59,96,92,77,29.89,29.83,13,3,13,0.18
2013-5-17,86,71,57,67,62,56,97,76,50,29.93,29.86,7,1,8,0.00
2013-5-18,85,75,65,75,69,61,95,81,69,29.93,29.79,15,6,15,0.00
2013-5-19,88,78,70,70,66,62,89,67,45,29.89,29.65,29,10,29,0.03
2013-5-20,80,70,62,71,65,59,94,84,70,29.83,29.67,19,5,20,0.18
2013-5-21,66,61,58,61,58,56,94,90,80,29.92,29.61,22,5,24,0.57
2013-5-22,78,65,53,61,56,52,97,77,51,29.94,29.80,14,4,15,0.00
2013-5-23,78,65,53,63,57,51,94,76,52,30.15,29.94,8,2,8,0.00
2013-5-24,80,66,56,64,58,52,88,75,55,30.23,30.14,15,5,15,0.00
2013-5-25,85,71,58,67,60,51,84,68,53,30.22,30.05,17,6,17,0.00
2013-5-26,84,74,65,68,64,61,89,72,54,30.12,29.97,20,8,22,0.00
2013-5-27,85,76,67,69,65,60,90,72,55,29.99,29.81,24,11,24,0.00
2013-5-28,84,75,71,68,65,62,81,70,54,29.88,29.77,23,12,24,0.00
2013-5-29,81,75,70,68,65,64,82,72,62,29.89,29.76,24,12,24,0.00
2013-5-30,79,70,62,69,64,60,94,83,65,29.86,29.72,26,10,26,1.40
2013-5-31,88,76,62,74,69,59,93,80,60,29.82,29.66,22,9,22,0.02
2013-6-1,79,70,60,71,63,54,95,80,56,30.00,29.65,16,5,16,0.46
2013-6-2,70,62,52,58,55,50,94,79,61,30.06,29.98,10,2,10,0.00
2013-6-3,78,78,78,60,60,60,53,53,53,29.90,29.90,4,4,4,0.00
2013-6-4,81,71,64,67,64,60,88,78,61,29.96,29.90,11,2,12,0.00
2013-6-5,80,72,64,69,64,60,94,79,62,30.01,29.87,13,4,14,0.62
2013-6-6,76,66,56,65,59,52,96,81,55,29.95,29.90,9,2,13,0.00
2013-6-7,82,62,49,64,53,47,94,76,40,29.99,29.91,9,1,9,0.00
2013-6-8,82,69,53,63,57,50,91,68,45,29.95,29.84,13,4,13,0.00
2013-6-9,86,74,64,66,61,58,84,65,41,29.92,29.85,11,4,12,0.00
2013-6-10,93,80,64,72,66,58,82,65,45,29.94,29.86,13,4,13,0.00
2013-6-11,95,83,73,72,68,66,80,63,42,30.01,29.92,16,6,16,0.00
2013-6-12,92,83,75,72,70,67,83,67,47,29.99,29.91,19,7,21,0.00
2013-6-13,94,80,70,72,69,64,91,69,42,30.04,29.94,8,2,10,0.00
2013-6-14,96,81,70,76,70,64,88,71,49,30.04,29.93,11,4,12,0.00
2013-6-15,70,69,68,68,67,66,95,93,91,29.99,29.96,8,3,8,0.00
2013-6-16,83,75,70,75,69,66,90,81,73,29.97,29.92,14,4,16,0.00
2013-6-17,74,69,65,70,66,63,95,91,84,29.98,29.87,12,3,12,0.84
2013-6-18,89,74,62,71,65,60,97,76,46,30.04,29.95,8,2,8,0.01
2013-6-19,89,75,60,71,64,58,94,72,46,30.07,29.97,13,3,13,0.00
2013-6-20,90,79,66,74,69,63,90,73,55,30.08,29.98,17,7,18,0.00
2013-6-21,92,82,74,75,72,70,88,72,54,30.09,30.00,18,7,18,0.00
2013-6-22,90,81,73,74,71,68,87,71,54,30.07,29.95,16,6,16,0.00
2013-6-23,91,81,73,74,70,67,88,71,52,30.01,29.91,20,8,22,0.00
2013-6-24,91,81,73,74,70,67,85,70,50,30.06,29.95,17,8,17,0.00
2013-6-25,88,81,74,72,70,68,83,69,54,29.99,29.85,26,9,26,0.00
2013-6-26,96,83,76,79,72,68,90,70,53,29.95,29.84,17,7,17,0.02
2013-6-27,100,85,71,77,74,68,94,71,44,29.99,29.86,8,2,8,0.00
2013-6-28,94,83,71,75,68,58,84,62,41,29.97,29.85,11,3,11,0.00
2013-6-29,88,76,59,63,56,51,90,55,30,29.92,29.82,18,4,18,0.00
2013-6-30,81,70,61,63,59,53,85,68,51,29.98,29.86,13,3,13,0.00
2013-7-1,83,70,57,63,56,45,91,64,28,30.06,29.97,12,3,13,0.00
2013-7-2,84,68,51,60,53,47,92,63,32,30.10,30.03,13,2,13,0.05
2013-7-3,89,70,52,60,53,47,91,60,26,30.12,30.01,12,2,12,0.00
2013-7-4,92,75,60,63,58,53,83,58,30,30.07,29.97,14,2,14,0.00
2013-7-5,92,75,60,64,59,54,83,60,32,30.04,29.94,10,3,11,0.00
2013-7-6,91,75,64,68,62,56,79,64,38,30.04,29.95,9,3,9,0.00
2013-7-7,94,78,70,69,65,60,80,65,35,30.06,29.99,12,4,12,0.00
2013-7-8,96,88,75,72,69,66,76,56,43,30.11,30.03,11,4,11,0.00
2013-7-9,97,85,73,72,70,65,84,62,41,30.10,29.98,19,5,19,0.00
2013-7-10,103,91,76,73,70,68,81,54,36,30.04,29.92,9,2,9,0.00
2013-7-11,98,84,70,76,69,62,91,62,38,30.03,29.94,11,3,11,0.00
2013-7-12,99,82,70,72,66,60,77,58,38,30.05,29.98,11,3,12,0.00
2013-7-13,95,79,65,67,61,56,85,57,38,30.06,29.97,10,3,10,0.00
2013-7-14,91,78,64,64,59,50,81,54,26,30.06,29.97,13,4,13,0.00
2013-7-15,93,79,70,73,66,61,89,67,43,30.18,30.06,18,4,18,0.09
2013-7-16,92,76,68,74,70,66,94,83,49,30.27,30.17,17,2,17,0.28
2013-7-17,96,82,68,73,69,65,94,69,40,30.33,30.20,11,2,11,0.00
2013-7-18,99,83,66,72,68,63,91,64,38,30.23,30.04,11,2,11,0.00
2013-7-19,99,82,70,73,69,66,87,66,36,30.07,29.94,13,4,13,0.00
2013-7-20,97,81,70,74,69,65,88,70,41,29.99,29.85,14,4,17,0.00
2013-7-21,86,74,69,76,70,65,94,86,68,29.97,29.86,10,2,10,0.49
2013-7-22,93,78,65,76,69,62,92,76,52,30.03,29.85,17,4,17,0.89
2013-7-23,99,85,70,77,73,68,93,69,48,29.94,29.82,27,5,27,0.63
2013-7-24,93,76,67,73,69,64,94,78,51,30.04,29.88,22,3,24,0.60
2013-7-25,90,77,64,73,68,62,93,75,47,30.10,30.03,8,2,8,0.00
2013-7-26,73,71,65,71,68,63,96,91,84,30.05,29.99,10,3,10,1.13
2013-7-27,85,72,62,69,63,58,97,76,46,30.08,29.97,9,2,9,0.00
2013-7-28,85,70,61,68,62,58,92,78,53,30.05,29.99,10,2,10,0.00
2013-7-29,91,77,67,75,69,63,91,78,60,30.06,29.98,15,2,16,0.02
2013-7-30,90,79,69,75,72,67,96,81,61,30.06,29.99,11,3,11,1.39
2013-7-31,90,81,72,77,72,68,95,78,58,30.08,30.01,15,2,15,0.00
2013-8-1,94,79,65,72,67,63,95,71,43,30.11,29.99,8,2,9,0.00
2013-8-2,88,78,72,78,72,67,89,82,69,30.00,29.89,12,5,12,0.03
2013-8-3,81,80,71,75,74,68,88,83,79,30.04,29.90,16,6,16,0.05
2013-8-4,78,74,73,72,70,69,92,88,80,30.12,30.01,13,5,13,0.01
2013-8-5,94,82,72,79,74,69,95,79,58,30.04,29.86,13,5,13,0.28
2013-8-6,94,83,72,79,74,68,89,75,56,29.92,29.83,12,5,12,0.00
2013-8-7,92,80,74,81,74,71,94,82,62,29.97,29.84,13,4,13,0.22
2013-8-8,85,75,68,76,71,66,96,86,64,29.99,29.87,14,4,14,3.62
2013-8-9,91,76,70,74,70,68,95,83,58,30.05,29.92,14,3,14,0.20
2013-8-10,87,76,67,73,69,66,94,81,61,30.12,30.05,11,4,11,0.00
2013-8-11,93,79,69,75,71,67,94,78,53,30.11,30.02,7,2,7,0.00
2013-8-12,88,76,71,76,71,68,94,85,66,30.10,29.98,16,2,16,0.47
2013-8-13,84,72,66,75,69,64,95,91,72,30.08,29.99,11,1,15,0.60
2013-8-14,82,71,62,65,62,57,93,75,51,30.16,30.07,11,3,11,0.01
2013-8-15,85,68,55,63,58,53,93,72,41,30.14,30.03,11,2,11,0.00
2013-8-16,84,69,60,64,59,56,87,72,48,30.14,30.04,8,2,8,0.00
2013-8-17,83,68,54,64,59,52,94,75,48,30.16,30.07,10,1,10,0.00
2013-8-18,88,72,59,67,62,57,95,73,43,30.16,30.06,7,2,7,0.00
2013-8-19,92,74,60,68,63,58,94,71,39,30.14,30.02,8,1,8,0.00
2013-8-20,91,75,61,69,64,59,94,70,41,30.11,30.03,9,2,9,0.00
2013-8-21,96,78,64,70,66,60,90,69,41,30.13,30.06,13,3,13,0.00
2013-8-22,97,77,66,74,67,62,90,75,45,30.14,30.03,10,2,10,0.00
2013-8-23,95,80,65,74,68,62,94,70,42,30.11,30.02,7,2,7,0.00
2013-8-24,93,80,70,75,70,66,91,72,48,30.17,30.06,11,3,11,0.00
2013-8-25,96,81,70,74,71,67,91,72,46,30.23,30.14,8,3,8,0.00
2013-8-26,96,81,70,74,70,65,88,71,48,30.23,30.12,10,3,10,0.00
2013-8-27,94,80,66,72,67,62,91,67,42,30.15,30.05,10,2,10,0.00
2013-8-28,96,80,66,73,68,63,91,70,45,30.11,30.04,11,2,12,0.00
2013-8-29,100,83,70,75,69,65,89,67,39,30.10,30.02,9,2,9,0.00
2013-8-30,99,78,71,73,69,66,88,76,39,30.03,29.90,12,1,12,0.00
2013-8-31,102,85,72,74,70,66,85,64,38,29.95,29.84,11,3,11,0.00
2013-9-1,96,80,72,76,70,67,89,72,46,29.94,29.83,13,3,13,0.00
2013-9-2,90,77,66,69,65,60,92,69,45,30.03,29.93,10,2,10,0.00
2013-9-3,92,74,57,68,61,55,93,67,36,30.09,30.00,8,1,8,0.00
2013-9-4,95,79,59,68,63,57,93,61,37,30.17,30.06,7,2,7,0.00
2013-9-5,95,76,61,68,62,56,89,65,40,30.20,30.11,8,2,8,0.00
2013-9-6,96,77,60,68,62,56,90,64,36,30.16,30.03,8,2,8,0.00
2013-9-7,74,69,67,66,62,61,83,79,76,30.04,29.98,4,2,4,0.00
2013-9-8,99,82,67,71,66,61,82,62,36,30.01,29.91,10,2,10,0.00
2013-9-9,97,81,65,69,64,60,85,60,33,30.04,29.95,12,2,14,0.00
2013-9-10,98,80,66,70,63,59,82,61,32,30.15,30.01,15,2,15,0.00
2013-9-11,100,81,66,71,66,62,88,65,36,30.18,30.06,7,1,7,0.00
2013-9-12,94,82,69,72,68,64,91,66,47,30.13,30.02,7,2,10,0.00
2013-9-28,66,61,60,63,59,58,95,94,91,30.07,29.97,10,3,10,0.05
2013-9-29,82,64,54,60,56,52,95,78,42,30.08,29.95,10,2,10,0.01
2013-9-30,69,62,56,65,59,52,95,91,83,29.97,29.89,6,1,6,0.00
2013-10-1,88,73,62,70,66,60,95,80,52,30.01,29.90,12,4,12,0.00
2013-10-2,81,70,66,68,66,64,94,88,63,30.00,29.93,7,3,8,0.00
2013-10-3,85,76,71,69,67,66,85,75,57,29.96,29.86,16,8,17,0.00
2013-10-4,87,76,70,71,67,63,90,76,55,29.95,29.86,19,8,19,0.00
2013-10-5,72,57,45,69,54,43,94,89,71,30.10,29.90,14,3,14,0.57
2013-10-6,65,57,46,47,44,41,86,63,48,30.04,29.97,14,4,14,0.00
2013-10-7,78,55,38,50,44,36,93,70,33,30.17,30.01,9,1,9,0.00
2013-10-8,75,54,43,52,46,40,94,77,40,30.16,30.05,15,2,15,0.00
2013-10-9,82,67,51,54,49,44,84,57,29,30.09,30.04,8,2,9,0.00
2013-10-10,81,64,48,60,52,44,92,69,45,30.11,29.98,11,4,12,0.00
2013-10-11,76,72,69,67,65,64,83,78,72,29.90,29.86,16,7,17,0.00
2013-10-12,71,64,59,63,60,54,95,86,71,30.17,29.90,13,3,13,0.56
2013-10-13,76,64,57,58,52,48,82,66,49,30.33,30.16,12,4,13,0.01
2013-10-14,63,62,61,60,58,57,91,88,87,30.01,29.95,13,10,13,0.13
2013-10-15,64,59,52,62,55,48,93,87,77,30.04,29.89,9,4,9,0.15
2013-10-16,64,58,51,46,44,43,76,62,51,30.07,30.01,7,3,7,0.00
2013-10-17,71,56,41,47,42,38,89,64,40,30.07,29.97,10,1,10,0.00
2013-10-18,66,48,39,52,43,36,93,84,58,30.07,29.97,10,2,10,0.31
2013-10-19,63,47,36,43,37,33,94,73,38,30.14,30.01,12,3,12,0.00
2013-10-20,69,63,52,45,43,39,72,50,33,30.01,29.88,17,7,17,0.00
2013-10-21,58,42,34,40,35,31,88,76,51,30.09,30.04,3,0,3,0.00
2013-10-22,70,58,33,48,42,31,94,58,40,30.08,29.94,16,4,16,0.00
2013-10-23,69,48,33,42,37,30,92,70,34,30.16,30.00,9,1,9,0.00
2013-10-24,57,45,34,39,34,27,91,70,41,30.38,30.07,14,3,16,0.00
2013-10-25,64,45,31,35,31,27,86,60,29,30.45,30.19,14,3,14,0.00
2013-10-26,66,54,44,54,45,34,82,72,63,30.19,30.09,15,4,15,0.00
2013-10-27,47,43,38,43,39,35,90,88,82,30.09,30.07,1,0,2,0.00
2013-10-28,65,58,56,53,52,50,88,79,64,30.13,30.08,8,4,8,0.00
2013-10-29,69,66,57,64,62,53,92,87,82,30.12,29.97,17,8,17,0.02
2013-10-30,68,65,62,64,62,59,94,90,86,30.04,29.81,18,8,19,2.33
2013-10-31,72,56,47,64,52,44,94,89,47,29.81,29.53,17,4,17,0.40
2013-11-1,70,54,40,51,43,36,93,70,35,30.01,29.75,13,2,13,0.01
2013-11-2,59,47,33,42,37,30,89,71,46,30.22,30.00,15,3,15,0.00
2013-11-3,64,47,32,42,37,29,93,70,39,30.19,29.99,27,8,27,0.00
2013-11-4,61,54,51,52,46,41,92,75,64,30.13,29.99,25,9,25,0.00
2013-11-5,62,60,54,60,57,52,93,90,89,30.12,29.93,17,10,17,0.75
2013-11-6,62,43,30,59,39,27,93,86,72,30.32,29.91,16,5,16,0.54
2013-11-7,65,44,26,46,33,24,93,71,32,30.43,30.31,9,2,9,0.01
2013-11-9,66,58,47,47,43,40,83,59,41,30.26,30.14,12,2,12,0.00
2013-11-10,75,55,43,47,43,37,87,66,34,30.37,30.24,12,2,12,0.00
2013-11-11,70,56,41,53,47,37,87,73,53,30.39,30.17,16,4,17,0.00
2013-11-12,44,33,20,37,20,14,87,62,36,30.73,30.39,18,5,18,0.00
2013-11-13,53,36,18,23,19,13,85,55,28,30.64,30.28,13,5,13,0.00
2013-11-14,59,42,29,39,24,19,70,50,33,30.28,30.01,16,8,17,0.00
2013-11-15,62,51,44,47,41,32,86,69,57,30.02,29.83,16,7,16,0.00
2013-11-16,69,66,64,63,60,58,84,80,74,29.65,29.61,24,12,24,0.00
2013-11-17,73,69,51,64,58,24,82,69,28,30.07,29.55,29,11,29,0.00
2013-11-18,76,52,33,39,29,23,79,46,18,30.25,30.04,8,2,8,0.00
2013-11-19,66,50,40,31,26,21,60,41,23,30.23,30.03,14,7,14,0.00
2013-11-20,65,53,44,41,29,17,56,41,28,30.03,29.89,15,9,15,0.01
2013-11-21,56,50,49,47,46,40,91,84,55,30.00,29.96,12,7,12,0.48
2013-11-22,33,32,32,28,28,28,86,84,82,30.45,30.44,9,4,10,0.00
2013-11-27,22,21,21,14,13,13,72,70,69,30.27,30.26,0,0,0,0.00